createdAt,value
2022-08-18T00:02:28.154Z,20.60
2022-08-18T00:04:58.417Z,20.50
2022-08-18T00:07:29.046Z,20.50
2022-08-18T00:09:58.569Z,20.50
2022-08-18T00:12:29.300Z,20.50
2022-08-18T00:14:57.141Z,20.40
2022-08-18T00:17:24.555Z,20.50
2022-08-18T00:19:51.331Z,20.40
2022-08-18T00:22:20.766Z,20.40
2022-08-18T00:24:50.813Z,20.40
2022-08-18T00:27:23.083Z,20.40
2022-08-18T00:29:51.727Z,20.40
2022-08-18T00:32:22.076Z,20.40
2022-08-18T00:34:48.963Z,20.40
2022-08-18T00:37:16.963Z,20.40
2022-08-18T00:39:46.421Z,20.40
2022-08-18T00:42:27.777Z,20.30
2022-08-18T00:45:01.102Z,20.30
2022-08-18T00:47:36.471Z,20.30
2022-08-18T00:50:24.515Z,20.30
2022-08-18T00:52:57.395Z,20.30
2022-08-18T00:55:25.781Z,20.30
2022-08-18T00:58:01.267Z,20.30
2022-08-18T01:00:28.222Z,20.30
2022-08-18T01:02:59.890Z,20.30
2022-08-18T01:05:43.208Z,20.30
2022-08-18T01:08:14.395Z,20.20
2022-08-18T01:10:42.005Z,20.20
2022-08-18T01:13:09.135Z,20.20
2022-08-18T01:15:37.058Z,20.20
2022-08-18T01:18:27.651Z,20.20
2022-08-18T01:21:33.628Z,20.20
2022-08-18T01:24:04.048Z,20.10
2022-08-18T01:26:32.064Z,20.20
2022-08-18T01:29:11.565Z,20.10
2022-08-18T01:32:06.412Z,20.10
2022-08-18T01:34:33.287Z,20.10
2022-08-18T01:37:00.374Z,20.10
2022-08-18T01:41:21.929Z,20.00
2022-08-18T01:42:17.381Z,20.00
2022-08-18T01:44:47.831Z,20.00
2022-08-18T01:47:18.224Z,20.00
2022-08-18T01:49:45.594Z,20.00
2022-08-18T01:52:20.392Z,20.00
2022-08-18T01:54:48.947Z,20.00
2022-08-18T01:57:16.892Z,20.00
2022-08-18T01:59:44.118Z,20.00
2022-08-18T02:02:18.912Z,20.00
2022-08-18T02:04:47.428Z,20.00
2022-08-18T02:07:15.046Z,19.90
2022-08-18T02:09:43.379Z,19.90
2022-08-18T02:12:11.409Z,19.90
2022-08-18T02:14:38.969Z,19.90
2022-08-18T02:17:07.927Z,19.90
2022-08-18T02:19:46.552Z,19.80
2022-08-18T02:22:17.341Z,19.70
2022-08-18T02:24:45.203Z,19.70
2022-08-18T02:27:14.064Z,19.70
2022-08-18T02:29:41.148Z,19.70
2022-08-18T02:32:08.737Z,19.70
2022-08-18T02:34:36.161Z,19.70
2022-08-18T02:37:03.385Z,19.70
2022-08-18T02:39:30.401Z,19.70
2022-08-18T02:41:57.340Z,19.70
2022-08-18T02:44:24.186Z,19.70
2022-08-18T02:46:55.242Z,19.70
2022-08-18T02:49:22.440Z,19.70
2022-08-18T02:51:51.503Z,19.70
2022-08-18T02:54:20.574Z,19.60
2022-08-18T02:56:47.630Z,19.60
2022-08-18T02:59:19.978Z,19.60
2022-08-18T03:01:49.672Z,19.60
2022-08-18T03:04:22.901Z,19.60
2022-08-18T03:06:53.593Z,19.50
2022-08-18T03:09:20.939Z,19.50
2022-08-18T03:11:47.944Z,19.50
2022-08-18T03:14:16.699Z,19.50
2022-08-18T03:16:53.216Z,19.50
2022-08-18T03:19:20.703Z,19.40
2022-08-18T03:21:48.375Z,19.30
2022-08-18T03:24:19.704Z,19.30
2022-08-18T03:26:49.910Z,19.30
2022-08-18T03:29:16.849Z,19.30
2022-08-18T03:31:45.389Z,19.30
2022-08-18T03:34:13.036Z,19.20
2022-08-18T03:36:40.371Z,19.20
2022-08-18T03:39:10.598Z,19.20
2022-08-18T03:41:57.070Z,19.20
2022-08-18T03:44:32.716Z,19.20
2022-08-18T03:47:03.100Z,19.30
2022-08-18T03:49:31.109Z,19.30
2022-08-18T03:52:00.760Z,19.20
2022-08-18T03:54:28.523Z,19.20
2022-08-18T03:56:55.844Z,19.10
2022-08-18T03:59:26.133Z,19.10
2022-08-18T04:01:55.291Z,19.10
2022-08-18T04:04:25.483Z,19.00
2022-08-18T04:06:57.103Z,19.00
2022-08-18T04:09:27.262Z,19.00
2022-08-18T04:11:54.434Z,19.00
2022-08-18T04:14:30.362Z,18.90
2022-08-18T04:16:58.528Z,18.90
2022-08-18T04:19:27.578Z,18.90
2022-08-18T04:21:56.933Z,18.90
2022-08-18T04:24:26.121Z,18.90
2022-08-18T04:26:53.661Z,18.80
2022-08-18T04:29:21.623Z,18.80
2022-08-18T04:31:50.271Z,18.80
2022-08-18T04:34:18.379Z,18.90
2022-08-18T04:36:45.218Z,18.90
2022-08-18T04:39:13.459Z,18.90
2022-08-18T04:41:43.474Z,18.90
2022-08-18T04:44:12.591Z,18.90
2022-08-18T04:46:43.392Z,19.00
2022-08-18T04:49:13.398Z,19.00
2022-08-18T04:52:34.497Z,19.00
2022-08-18T04:54:30.804Z,19.20
2022-08-18T04:56:57.743Z,19.20
2022-08-18T04:59:25.269Z,19.20
2022-08-18T05:01:52.044Z,19.40
2022-08-18T05:04:18.855Z,19.40
2022-08-18T05:06:46.195Z,19.50
2022-08-18T05:09:16.796Z,19.60
2022-08-18T05:11:50.669Z,19.60
2022-08-18T05:14:18.400Z,19.60
2022-08-18T05:16:48.956Z,19.60
2022-08-18T05:19:23.262Z,19.70
2022-08-18T05:21:59.712Z,19.70
2022-08-18T05:24:33.727Z,19.80
2022-08-18T05:27:04.730Z,19.90
2022-08-18T05:29:36.691Z,19.90
2022-08-18T05:32:09.368Z,19.90
2022-08-18T05:34:36.369Z,20.00
2022-08-18T05:37:28.555Z,20.10
2022-08-18T05:40:10.788Z,20.20
2022-08-18T05:42:39.867Z,20.30
2022-08-18T05:45:16.762Z,20.40
2022-08-18T05:47:44.702Z,20.50
2022-08-18T05:50:18.618Z,20.60
2022-08-18T05:52:58.797Z,20.70
2022-08-18T05:55:48.260Z,20.90
2022-08-18T05:58:34.003Z,21.00
2022-08-18T06:01:25.570Z,21.20
2022-08-18T06:04:06.906Z,21.40
2022-08-18T06:06:36.543Z,21.60
2022-08-18T06:09:19.877Z,21.70
2022-08-18T06:11:47.243Z,21.80
2022-08-18T06:14:14.327Z,21.80
2022-08-18T06:16:56.815Z,21.90
2022-08-18T06:19:32.206Z,22.20
2022-08-18T06:22:23.064Z,22.50
2022-08-18T06:25:16.165Z,22.70
2022-08-18T06:28:06.361Z,22.90
2022-08-18T06:30:33.391Z,23.10
2022-08-18T06:33:16.634Z,23.40
2022-08-18T06:36:02.714Z,23.70
2022-08-18T06:39:04.981Z,23.90
2022-08-18T06:41:46.228Z,24.20
2022-08-18T06:44:16.587Z,24.50
2022-08-18T06:46:46.318Z,24.80
2022-08-18T06:49:36.289Z,25.10
2022-08-18T06:52:21.149Z,25.20
2022-08-18T06:54:51.266Z,25.30
2022-08-18T06:57:26.258Z,25.10
2022-08-18T07:00:03.716Z,24.80
2022-08-18T07:02:54.861Z,24.50
2022-08-18T07:05:31.127Z,24.40
2022-08-18T07:08:45.553Z,23.90
2022-08-18T07:11:12.323Z,23.60
2022-08-18T07:13:41.870Z,23.40
2022-08-18T07:16:47.417Z,23.30
2022-08-18T07:19:22.782Z,23.10
2022-08-18T07:22:07.660Z,23.20
2022-08-18T07:24:41.840Z,23.40
2022-08-18T07:27:17.688Z,23.50
2022-08-18T07:30:15.671Z,23.60
2022-08-18T07:32:49.786Z,23.40
2022-08-18T07:35:25.380Z,23.10
2022-08-18T07:37:59.666Z,23.00
2022-08-18T07:40:44.165Z,23.20
2022-08-18T07:43:36.060Z,23.30
2022-08-18T07:46:13.474Z,23.10
2022-08-18T07:48:40.504Z,23.30
2022-08-18T07:51:19.078Z,23.60
2022-08-18T07:54:20.105Z,23.70
2022-08-18T07:57:24.770Z,23.50
2022-08-18T08:00:00.486Z,23.60
2022-08-18T08:02:55.173Z,23.40
2022-08-18T08:06:00.298Z,23.10
2022-08-18T08:08:40.128Z,23.10
2022-08-18T08:11:34.704Z,22.60
2022-08-18T08:14:15.217Z,22.50
2022-08-18T08:16:53.287Z,22.40
2022-08-18T08:20:00.887Z,22.20
2022-08-18T08:22:37.182Z,22.10
2022-08-18T08:25:04.043Z,22.20
2022-08-18T08:27:42.666Z,22.10
2022-08-18T08:30:16.595Z,22.00
2022-08-18T08:33:02.073Z,21.80
2022-08-18T08:35:50.665Z,21.80
2022-08-18T08:38:42.453Z,21.70
2022-08-18T08:41:26.147Z,21.60
2022-08-18T08:44:05.732Z,21.70
2022-08-18T08:46:51.940Z,21.60
2022-08-18T08:49:21.775Z,21.70
2022-08-18T08:51:57.595Z,21.90
2022-08-18T08:54:31.177Z,21.90
2022-08-18T08:57:01.410Z,21.90
2022-08-18T08:59:28.216Z,21.90
2022-08-18T09:02:06.016Z,21.60
2022-08-18T09:05:08.525Z,21.40
2022-08-18T09:07:55.877Z,21.50
2022-08-18T09:10:25.727Z,21.60
2022-08-18T09:13:13.467Z,21.70
2022-08-18T09:16:13.971Z,21.80
2022-08-18T09:19:13.132Z,21.80
2022-08-18T09:21:59.102Z,22.00
2022-08-18T09:24:29.776Z,22.10
2022-08-18T09:27:16.427Z,22.20
2022-08-18T09:29:59.110Z,22.20
2022-08-18T09:32:28.585Z,22.30
2022-08-18T09:35:10.445Z,22.30
2022-08-18T09:38:20.365Z,22.40
2022-08-18T09:41:14.450Z,22.40
2022-08-18T09:46:59.638Z,22.50
2022-08-18T09:52:33.411Z,22.50
2022-08-18T09:55:27.117Z,22.60
2022-08-18T09:58:26.646Z,22.60
2022-08-18T10:01:31.901Z,22.60
2022-08-18T10:04:29.307Z,22.70
2022-08-18T10:11:02.316Z,23.00
2022-08-18T10:13:39.204Z,23.10
2022-08-18T10:16:18.120Z,23.10
2022-08-18T10:19:00.616Z,23.10
2022-08-18T10:24:36.875Z,23.30
2022-08-18T10:27:08.868Z,23.40
2022-08-18T10:29:49.054Z,23.50
2022-08-18T10:32:15.835Z,23.70
2022-08-18T10:34:51.601Z,23.60
2022-08-18T10:37:33.764Z,23.70
2022-08-18T10:40:13.569Z,23.80
2022-08-18T10:42:44.698Z,24.00
2022-08-18T10:45:35.055Z,24.10
2022-08-18T10:48:04.847Z,24.10
2022-08-18T10:50:50.574Z,24.20
2022-08-18T10:53:45.438Z,24.30
2022-08-18T10:56:35.764Z,24.40
2022-08-18T10:59:16.087Z,24.30
2022-08-18T11:02:15.440Z,24.30
2022-08-18T11:07:42.966Z,24.40
2022-08-18T11:10:50.556Z,24.50
2022-08-18T11:13:31.368Z,24.50
2022-08-18T11:16:01.195Z,24.70
2022-08-18T11:18:43.184Z,24.70
2022-08-18T11:21:27.020Z,24.60
2022-08-18T11:24:04.520Z,24.60
2022-08-18T11:26:35.094Z,24.70
2022-08-18T11:29:29.802Z,24.90
2022-08-18T11:32:28.661Z,24.90
2022-08-18T11:34:58.280Z,25.10
2022-08-18T11:37:27.829Z,25.30
2022-08-18T11:41:08.592Z,25.30
2022-08-18T11:43:21.348Z,25.00
2022-08-18T11:45:58.382Z,25.10
2022-08-18T11:48:35.849Z,25.30
2022-08-18T11:51:18.324Z,25.40
2022-08-18T11:53:58.247Z,25.40
2022-08-18T11:56:36.105Z,25.20
2022-08-18T11:59:07.887Z,25.10
2022-08-18T12:01:51.263Z,25.00
2022-08-18T12:04:24.613Z,25.00
2022-08-18T12:06:59.690Z,24.60
2022-08-18T12:12:30.614Z,24.80
2022-08-18T12:15:17.633Z,24.70
2022-08-18T12:17:52.916Z,24.90
2022-08-18T12:20:20.666Z,24.90
2022-08-18T12:22:49.872Z,24.90
2022-08-18T12:25:24.945Z,25.10
2022-08-18T12:27:56.123Z,25.10
2022-08-18T12:30:23.317Z,25.00
2022-08-18T12:33:00.809Z,24.90
2022-08-18T12:35:32.696Z,24.90
2022-08-18T12:38:04.937Z,24.80
2022-08-18T12:40:40.540Z,24.90
2022-08-18T12:43:07.600Z,24.90
2022-08-18T12:45:37.536Z,25.00
2022-08-18T12:48:05.191Z,25.00
2022-08-18T12:56:19.801Z,25.10
2022-08-18T12:58:47.200Z,25.20
2022-08-18T13:01:14.543Z,25.30
2022-08-18T13:04:11.673Z,25.30
2022-08-18T13:06:36.134Z,25.40
2022-08-18T13:09:03.737Z,25.60
2022-08-18T13:11:43.268Z,25.70
2022-08-18T13:14:10.071Z,25.80
2022-08-18T13:16:53.514Z,25.70
2022-08-18T13:19:20.516Z,25.80
2022-08-18T13:21:47.507Z,25.70
2022-08-18T13:24:16.784Z,25.60
2022-08-18T13:26:49.518Z,25.60
2022-08-18T13:29:19.371Z,25.60
2022-08-18T13:31:55.509Z,25.60
2022-08-18T13:34:23.362Z,25.60
2022-08-18T13:36:51.297Z,25.80
2022-08-18T13:39:22.955Z,25.80
2022-08-18T13:41:52.895Z,25.70
2022-08-18T13:44:22.455Z,25.70
2022-08-18T13:46:55.493Z,25.70
2022-08-18T13:49:30.320Z,25.60
2022-08-18T13:52:00.380Z,25.40
2022-08-18T13:54:33.956Z,25.30
2022-08-18T13:57:03.144Z,25.20
2022-08-18T13:59:33.059Z,25.20
2022-08-18T14:02:05.953Z,25.20
2022-08-18T14:04:36.213Z,25.20
2022-08-18T14:07:08.910Z,25.10
2022-08-18T14:09:38.068Z,25.10
2022-08-18T14:12:16.042Z,25.10
2022-08-18T14:14:52.054Z,25.10
2022-08-18T14:17:22.490Z,25.20
2022-08-18T14:20:10.142Z,25.30
2022-08-18T14:22:56.469Z,25.40
2022-08-18T14:25:41.694Z,25.50
2022-08-18T14:28:09.320Z,25.40
2022-08-18T14:30:39.910Z,25.40
2022-08-18T14:33:11.479Z,25.40
2022-08-18T14:36:06.038Z,25.40
2022-08-18T14:38:25.673Z,25.40
2022-08-18T14:40:52.677Z,25.40
2022-08-18T14:43:25.036Z,25.40
2022-08-18T14:45:53.783Z,25.30
2022-08-18T14:48:27.334Z,25.30
2022-08-18T14:50:56.201Z,25.30
2022-08-18T14:53:26.927Z,25.30
2022-08-18T14:55:54.777Z,25.30
2022-08-18T14:58:28.611Z,25.40
2022-08-18T15:00:57.089Z,25.40
2022-08-18T15:03:28.186Z,25.40
2022-08-18T15:06:00.185Z,25.40
2022-08-18T15:08:28.090Z,25.50
2022-08-18T15:10:56.401Z,25.60
2022-08-18T15:13:26.487Z,25.60
2022-08-18T15:15:53.627Z,25.70
2022-08-18T15:18:22.522Z,25.70
2022-08-18T15:21:10.376Z,25.60
2022-08-18T15:24:19.406Z,25.70
2022-08-18T15:26:51.421Z,25.80
2022-08-18T15:29:18.894Z,25.80
2022-08-18T15:31:57.894Z,25.70
2022-08-18T15:34:28.706Z,25.80
2022-08-18T15:36:57.017Z,25.90
2022-08-18T15:39:24.378Z,25.90
2022-08-18T15:41:53.332Z,26.00
2022-08-18T15:44:22.233Z,26.00
2022-08-18T15:46:51.411Z,26.00
2022-08-18T15:49:21.908Z,26.00
2022-08-18T15:51:50.330Z,26.00
2022-08-18T15:54:19.756Z,26.00
2022-08-18T15:56:58.204Z,26.00
2022-08-18T15:59:33.175Z,26.00
2022-08-18T16:02:05.871Z,26.10
2022-08-18T16:04:32.800Z,26.20
2022-08-18T16:06:59.570Z,26.10
2022-08-18T16:09:26.471Z,26.10
2022-08-18T16:11:53.438Z,26.00
2022-08-18T16:14:20.226Z,25.90
2022-08-18T16:16:47.033Z,25.90
2022-08-18T16:19:13.840Z,25.90
2022-08-18T16:21:40.654Z,25.90
2022-08-18T16:24:07.965Z,25.90
2022-08-18T16:26:36.035Z,25.90
2022-08-18T16:29:03.462Z,25.80
2022-08-18T16:31:30.307Z,25.80
2022-08-18T16:33:57.886Z,25.80
2022-08-18T16:36:25.770Z,25.80
2022-08-18T16:38:56.039Z,25.80
2022-08-18T16:41:26.491Z,25.70
2022-08-18T16:43:53.539Z,25.70
2022-08-18T16:46:26.494Z,25.70
2022-08-18T16:48:57.856Z,25.60
2022-08-18T16:51:27.386Z,25.50
2022-08-18T16:53:54.647Z,25.50
2022-08-18T16:56:24.928Z,25.40
2022-08-18T16:59:10.922Z,25.30
2022-08-18T17:01:56.117Z,25.30
2022-08-18T17:04:25.946Z,25.30
2022-08-18T17:06:52.944Z,25.30
2022-08-18T17:09:20.402Z,25.30
2022-08-18T17:11:51.797Z,25.30
2022-08-18T17:14:21.018Z,25.20
2022-08-18T17:16:49.646Z,25.20
2022-08-18T17:19:16.531Z,25.30
2022-08-18T17:21:43.617Z,25.20
2022-08-18T17:24:11.383Z,25.10
2022-08-18T17:27:02.194Z,25.10
2022-08-18T17:29:48.034Z,25.10
2022-08-18T17:32:25.118Z,25.10
2022-08-18T17:35:00.784Z,24.90
2022-08-18T17:37:30.204Z,24.90
2022-08-18T17:40:16.858Z,24.90
2022-08-18T17:42:44.093Z,24.80
2022-08-18T17:45:13.848Z,24.80
2022-08-18T17:48:05.746Z,24.70
2022-08-18T17:51:11.968Z,24.70
2022-08-18T17:53:39.094Z,24.70
2022-08-18T17:56:21.118Z,24.70
2022-08-18T17:59:42.867Z,24.60
2022-08-18T18:02:29.522Z,24.50
2022-08-18T18:05:03.592Z,24.50
2022-08-18T18:07:38.496Z,24.40
2022-08-18T18:10:22.018Z,24.30
2022-08-18T18:13:14.138Z,24.20
2022-08-18T18:15:48.145Z,24.20
2022-08-18T18:18:45.422Z,24.20
2022-08-18T18:21:15.725Z,24.10
2022-08-18T18:23:50.015Z,24.10
2022-08-18T18:26:42.843Z,24.00
2022-08-18T18:29:12.637Z,23.90
2022-08-18T18:31:41.942Z,23.80
2022-08-18T18:34:27.892Z,23.80
2022-08-18T18:36:57.471Z,23.70
2022-08-18T18:39:35.950Z,23.60
2022-08-18T18:42:15.713Z,23.50
2022-08-18T18:44:58.184Z,23.40
2022-08-18T18:47:45.060Z,23.40
2022-08-18T18:50:52.777Z,23.30
2022-08-18T18:53:19.943Z,23.30
2022-08-18T18:56:15.690Z,23.30
2022-08-18T18:59:06.840Z,23.10
2022-08-18T19:01:45.264Z,23.10
2022-08-18T19:04:43.613Z,23.00
2022-08-18T19:07:30.831Z,23.00
2022-08-18T19:10:09.110Z,23.00
2022-08-18T19:12:50.359Z,22.90
2022-08-18T19:15:19.041Z,22.80
2022-08-18T19:17:58.501Z,22.80
2022-08-18T19:20:30.171Z,22.70
2022-08-18T19:22:59.648Z,22.60
2022-08-18T19:25:33.080Z,22.60
2022-08-18T19:28:12.264Z,22.50
2022-08-18T19:30:43.932Z,22.40
2022-08-18T19:33:24.779Z,22.30
2022-08-18T19:36:06.542Z,22.30
2022-08-18T19:39:00.303Z,22.20
2022-08-18T19:41:39.153Z,22.20
2022-08-18T19:44:18.989Z,22.30
2022-08-18T19:46:51.323Z,22.20
2022-08-18T19:49:41.592Z,22.10
2022-08-18T19:52:45.930Z,22.10
2022-08-18T19:55:37.511Z,22.00
2022-08-18T19:58:29.854Z,21.90
2022-08-18T20:01:24.574Z,21.90
2022-08-18T20:04:10.770Z,21.90
2022-08-18T20:06:48.361Z,21.80
2022-08-18T20:09:24.226Z,21.70
2022-08-18T20:12:07.633Z,21.70
2022-08-18T20:14:39.304Z,21.60
2022-08-18T20:17:09.169Z,21.70
2022-08-18T20:19:36.163Z,21.60
2022-08-18T20:22:26.674Z,21.60
2022-08-18T20:25:06.497Z,21.60
2022-08-18T20:27:49.357Z,21.60
2022-08-18T20:30:53.881Z,21.50
2022-08-18T20:33:24.116Z,21.50
2022-08-18T20:36:25.502Z,21.40
2022-08-18T20:38:55.093Z,21.40
2022-08-18T20:41:44.269Z,21.30
2022-08-18T20:44:29.871Z,21.30
2022-08-18T20:47:27.523Z,21.30
2022-08-18T20:50:33.951Z,21.20
2022-08-18T20:53:25.949Z,21.20
2022-08-18T20:56:31.634Z,21.20
2022-08-18T20:59:13.891Z,21.20
2022-08-18T21:01:40.831Z,21.10
2022-08-18T21:04:08.480Z,21.00
2022-08-18T21:06:42.139Z,21.00
2022-08-18T21:09:10.420Z,21.00
2022-08-18T21:11:47.055Z,20.90
2022-08-18T21:14:25.066Z,20.90
2022-08-18T21:16:58.824Z,20.90
2022-08-18T21:19:28.798Z,20.90
2022-08-18T21:21:59.084Z,20.90
2022-08-18T21:24:44.808Z,20.90
2022-08-18T21:27:26.543Z,20.80
2022-08-18T21:30:00.010Z,20.80
2022-08-18T21:32:32.538Z,20.80
2022-08-18T21:35:05.819Z,20.80
2022-08-18T21:37:40.108Z,20.80
2022-08-18T21:40:07.734Z,20.80
2022-08-18T21:42:44.813Z,20.70
2022-08-18T21:45:18.452Z,20.70
2022-08-18T21:48:06.209Z,20.70
2022-08-18T21:50:34.964Z,20.60
2022-08-18T21:53:15.977Z,20.60
2022-08-18T21:55:46.844Z,20.60
2022-08-18T21:58:45.139Z,20.60
2022-08-18T22:01:25.370Z,20.60
2022-08-18T22:04:21.973Z,20.60
2022-08-18T22:07:02.349Z,20.50
2022-08-18T22:09:50.196Z,20.60
2022-08-18T22:12:44.578Z,20.60
2022-08-18T22:15:13.929Z,20.70
2022-08-18T22:17:52.600Z,20.60
2022-08-18T22:20:46.505Z,20.60
2022-08-18T22:23:58.893Z,20.70
2022-08-18T22:26:34.534Z,20.70
2022-08-18T22:29:23.753Z,20.60
2022-08-18T22:31:52.541Z,20.60
2022-08-18T22:34:29.198Z,20.60
2022-08-18T22:36:59.810Z,20.60
2022-08-18T22:39:38.151Z,20.70
2022-08-18T22:42:06.082Z,20.70
2022-08-18T22:44:33.008Z,20.70
2022-08-18T22:46:59.953Z,20.70
2022-08-18T22:49:26.801Z,20.70
2022-08-18T22:51:55.070Z,20.70
2022-08-18T22:54:23.087Z,20.70
2022-08-18T22:56:55.148Z,20.70
2022-08-18T22:59:25.524Z,20.70
2022-08-18T23:01:54.963Z,20.60
2022-08-18T23:04:23.628Z,20.60
2022-08-18T23:06:53.934Z,20.70
2022-08-18T23:09:29.783Z,20.70
2022-08-18T23:12:00.691Z,20.60
2022-08-18T23:14:28.250Z,20.60
2022-08-18T23:16:54.990Z,20.60
2022-08-18T23:19:21.878Z,20.60
2022-08-18T23:21:49.263Z,20.60
2022-08-18T23:24:18.364Z,20.60
2022-08-18T23:26:46.080Z,20.60
2022-08-18T23:29:14.380Z,20.50
2022-08-18T23:31:43.721Z,20.50
2022-08-18T23:34:13.238Z,20.50
2022-08-18T23:36:45.099Z,20.50
2022-08-18T23:39:13.108Z,20.50
2022-08-18T23:41:40.081Z,20.50
2022-08-18T23:44:07.171Z,20.50
2022-08-18T23:46:34.855Z,20.50
2022-08-18T23:49:03.625Z,20.50
2022-08-18T23:51:34.706Z,20.40
2022-08-18T23:54:07.624Z,20.40
2022-08-18T23:56:36.211Z,20.40
2022-08-18T23:59:03.791Z,20.40
